Airfield :
LOGIN :

Register | Disclaimer

   EN    FR    IT 

 










Legend :    VFR   Marginal VFR   IFR   Intensive IFR   Very Intensive IFR
Visi :
Ceiling :
>= 8 km
>= 3000ft
5 to 8 km
1000 to 3000 ft
1500m to 5 km
500 to 1000 ft
800 to 1500m
200 to 500 ft
< 800m
< 200 ft
Symbols :   Thunderstorms  Fog  Heavy snow  Heavy precipitations  Wind > 20 kt
SIGMETs :     Misc.  Thunderstorms  Icing  Turbulence  Mountain Waves  Volcanic Ashes






- Airport Elevation : 284 ft


EGUW - RAF Wattisham

CURRENT METAR :
  • 131320Z 01010KT 9999 FEW050CB 28/18 Q1012 NOSIG RMK BLU BLU

EXPIRED METARs :
  • 131250Z 01010KT CAVOK 28/18 Q1012 NOSIG RMK BLU BLU
  • 131221Z 01010KT 9999 FEW050CB 27/18 Q1012 NOSIG RMK BLU BLU
  • 131150Z 36010KT CAVOK 26/18 Q1012 NOSIG RMK BLU BLU
  • 131120Z 36011KT CAVOK 26/18 Q1012 NOSIG RMK BLU BLU
  • 131050Z 34010KT 9999 FEW050CB 25/17 Q1012 NOSIG RMK BLU BLU

TAF TAF EGUW
Valid from the 13 at 12:00 until the 13 at 21:00 UTC


131019Z 1312/1321 33005KT CAVOK
PROB30
TEMPO 1312/1319 VRB20G30KT 3000 +TSGR BKN045CB



MET'MAP, your aeronautical weather chart ! - Copyright ORBIFLY December 2007 - Disclaimer

ORBIFLY MET'MAP TEAM :

Programming & Development : Alexandra Zaïnal
Concept & original design : Baudouin d'Aumeries
Assistance for programming : Marc-Olivier Méhu
Technical & hardware support : Manuel Goepfert

Contact : metmap@orbifly.com




SOURCES & CREDITS :

   NOAA